Main page
METAR-TAF:

METAR-TAF

Airports :

Budapest, Hungary

Budapest Ferenc Liszt International Airport

latitude: 47-26N, longitude: 019-16E, elevation: 151 m

Current weather observation

The report was made 37 minutes ago, at 16:30 UTC
Wind 11 kt from the Northwest
Temperature 28°C
Humidity 42%
Pressure 1012 hPa
Visibility 10 km or more
no clouds below 1500 m and no cumulonimbus

METAR: LHBP 261630Z 31011KT CAVOK 28/14 Q1012 NOSIG

Time: 19:07 (17:07 UTC)

Forecast

The report was made 5 hours and 52 minutes ago, at 11:15 UTC
Forecast valid from 26 at 12 UTC to 27 at 12 UTC
Wind 9 kt from the West/Northwest
Visibility 10 km or more
no clouds below 1500 m and no cumulonimbus
Becoming
from 26 at 16 UTC to 26 at 18 UTC
Wind 3 kt from variable directions
Becoming
from 27 at 08 UTC to 27 at 10 UTC
Wind 9 kt from the South

TAF: LHBP 261115Z 2612/2712 29009KT CAVOK BECMG 2616/2618 VRB03KT BECMG 2708/2710 17009KT

Weather observations and forecasts of more than 4000 airports (METAR and TAF reports).

The available stations are represented by yellow and red dots on the map.

Hover mouse over dot to see the name of the station.

Then click to see weather observations and forecasts.

To change the map : click on the green buttons with a black cross to zoom in, on the green button with a dash to zoom out, or on the green arrows for adjacent maps.


METAR-TAF: